Airfield :
LOGIN :

Register | Disclaimer

   EN    FR    IT 

 










Legend :    VFR   Marginal VFR   IFR   Intensive IFR   Very Intensive IFR
Visi :
Ceiling :
>= 8 km
>= 3000ft
5 to 8 km
1000 to 3000 ft
1500m to 5 km
500 to 1000 ft
800 to 1500m
200 to 500 ft
< 800m
< 200 ft
Symbols :   Thunderstorms  Fog  Heavy snow  Heavy precipitations  Wind > 20 kt
SIGMETs :     Misc.  Thunderstorms  Icing  Turbulence  Mountain Waves  Volcanic Ashes






- Airport Elevation : 65 ft
- IATA code : ADA


LTAF - Adana

CURRENT METAR :
  • 290720Z 19014KT 9999 SCT035 22/12 Q1013 NOSIG RMK RWY23 23016KT

EXPIRED METARs :
  • 290650Z 20016KT 170V230 9999 SCT035 22/11 Q1012 NOSIG RMK RWY23 22014KT
  • 290620Z 19012KT 9999 SCT035 BKN100 21/14 Q1012 NOSIG RMK RWY23 21011KT
  • 290550Z 20010KT 170V240 9999 SCT035 22/13 Q1012 NOSIG RMK RWY23 20010KT 170V230
  • 290520Z 23009KT 9999 SCT035 21/15 Q1012 NOSIG RMK RWY23 20010KT 160V250
  • 290450Z 19005KT 150V220 9999 SCT035 20/14 Q1012 NOSIG RMK RWY23 21005KT 170V250

TAF TAF LTAF
Valid from the 29 at 06:00 until the 30 at 06:00 UTC


290440Z 2906/3006 21012KT 9999 SCT035
PROB40
TEMPO 2911/2914 -TSRA FEW025CB BKN030
BECMG 2916/2919 VRB02KT



MET'MAP, your aeronautical weather chart ! - Copyright ORBIFLY December 2007 - Disclaimer

ORBIFLY MET'MAP TEAM :

Programming & Development : Alexandra Zaïnal
Concept & original design : Baudouin d'Aumeries
Assistance for programming : Marc-Olivier Méhu
Technical & hardware support : Manuel Goepfert

Contact : metmap@orbifly.com




SOURCES & CREDITS :

   NOAA